createdAt,value
2018-06-30T00:00:50.812Z,21.83
2018-06-30T00:01:51.383Z,21.57
2018-06-30T00:02:51.952Z,21.37
2018-06-30T00:03:52.512Z,21.17
2018-06-30T00:04:53.056Z,20.91
2018-06-30T00:05:53.603Z,20.78
2018-06-30T00:06:54.161Z,20.95
2018-06-30T00:07:54.711Z,21.22
2018-06-30T00:08:55.267Z,21.40
2018-06-30T00:09:55.817Z,21.42
2018-06-30T00:10:56.377Z,21.51
2018-06-30T00:11:56.932Z,21.65
2018-06-30T00:12:57.487Z,21.70
2018-06-30T00:13:58.034Z,21.79
2018-06-30T00:14:58.586Z,21.91
2018-06-30T00:15:59.136Z,22.05
2018-06-30T00:16:59.694Z,21.96
2018-06-30T00:18:00.245Z,21.93
2018-06-30T00:19:00.801Z,21.99
2018-06-30T00:20:01.347Z,21.89
2018-06-30T00:21:01.895Z,21.95
2018-06-30T00:22:02.447Z,22.07
2018-06-30T00:23:03.002Z,22.05
2018-06-30T00:24:03.559Z,22.07
2018-06-30T00:25:04.108Z,22.03
2018-06-30T00:26:04.664Z,22.03
2018-06-30T00:27:05.217Z,22.05
2018-06-30T00:28:05.769Z,22.05
2018-06-30T00:29:06.320Z,22.05
2018-06-30T00:30:06.873Z,21.95
2018-06-30T00:31:07.419Z,21.96
2018-06-30T00:32:07.973Z,21.99
2018-06-30T00:33:08.526Z,21.95
2018-06-30T00:34:09.077Z,21.98
2018-06-30T00:35:09.626Z,21.93
2018-06-30T00:36:10.184Z,21.72
2018-06-30T00:37:10.733Z,21.67
2018-06-30T00:38:11.316Z,21.49
2018-06-30T00:39:11.836Z,21.39
2018-06-30T00:40:12.390Z,21.43
2018-06-30T00:41:12.948Z,21.24
2018-06-30T00:42:13.499Z,21.18
2018-06-30T00:43:14.054Z,21.03
2018-06-30T00:44:14.605Z,20.96
2018-06-30T00:45:15.153Z,20.95
2018-06-30T00:46:15.703Z,21.05
2018-06-30T00:47:16.261Z,20.82
2018-06-30T00:48:16.812Z,20.67
2018-06-30T00:49:17.361Z,20.59
2018-06-30T00:50:17.916Z,20.62
2018-06-30T00:51:18.463Z,20.32
2018-06-30T00:52:19.053Z,20.34
2018-06-30T00:53:19.568Z,20.22
2018-06-30T00:54:20.120Z,20.36
2018-06-30T00:55:20.682Z,20.31
2018-06-30T00:56:21.229Z,20.29
2018-06-30T00:57:21.775Z,20.22
2018-06-30T00:58:22.327Z,20.24
2018-06-30T00:59:22.873Z,20.40
2018-06-30T01:00:23.426Z,20.60
2018-06-30T01:01:23.976Z,20.69
2018-06-30T01:02:24.528Z,20.90
2018-06-30T01:03:25.083Z,20.91
2018-06-30T01:04:25.630Z,21.12
2018-06-30T01:05:26.182Z,21.09
2018-06-30T01:06:26.730Z,21.17
2018-06-30T01:07:27.284Z,21.24
2018-06-30T01:08:27.834Z,21.22
2018-06-30T01:09:28.386Z,21.28
2018-06-30T01:10:28.938Z,21.35
2018-06-30T01:11:29.490Z,21.33
2018-06-30T01:12:30.040Z,21.35
2018-06-30T01:13:30.590Z,21.33
2018-06-30T01:14:31.140Z,21.37
2018-06-30T01:15:31.698Z,21.17
2018-06-30T01:16:32.251Z,21.14
2018-06-30T01:17:32.802Z,20.92
2018-06-30T01:18:33.354Z,20.98
2018-06-30T01:19:33.908Z,20.87
2018-06-30T01:20:34.450Z,20.95
2018-06-30T01:21:35.000Z,20.88
2018-06-30T01:22:35.552Z,20.90
2018-06-30T01:23:36.105Z,20.78
2018-06-30T01:24:36.655Z,20.77
2018-06-30T01:25:37.207Z,20.80
2018-06-30T01:26:37.759Z,20.77
2018-06-30T01:27:38.310Z,20.84
2018-06-30T01:28:38.858Z,20.72
2018-06-30T01:29:39.410Z,20.40
2018-06-30T01:30:39.960Z,19.99
2018-06-30T01:31:40.512Z,19.87
2018-06-30T01:32:41.064Z,19.80
2018-06-30T01:33:41.614Z,19.73
2018-06-30T01:34:42.166Z,19.51
2018-06-30T01:35:42.722Z,19.39
2018-06-30T01:36:43.272Z,19.37
2018-06-30T01:37:43.820Z,19.25
2018-06-30T01:38:44.375Z,19.14
2018-06-30T01:39:44.930Z,19.11
2018-06-30T01:40:45.502Z,18.99
2018-06-30T01:41:46.053Z,19.09
2018-06-30T01:42:46.613Z,19.16
2018-06-30T01:43:47.155Z,19.16
2018-06-30T01:44:47.709Z,19.16
2018-06-30T01:45:48.260Z,19.15
2018-06-30T01:46:48.809Z,19.16
2018-06-30T01:47:49.360Z,19.21
2018-06-30T01:48:49.913Z,19.22
2018-06-30T01:49:50.463Z,19.15
2018-06-30T01:50:51.015Z,19.12
2018-06-30T01:51:51.571Z,19.12
2018-06-30T01:52:52.125Z,18.98
2018-06-30T01:53:52.669Z,19.02
2018-06-30T01:54:53.221Z,19.02
2018-06-30T01:55:53.769Z,18.95
2018-06-30T01:56:54.327Z,18.92
2018-06-30T01:57:54.876Z,18.99
2018-06-30T01:58:55.426Z,18.89
2018-06-30T01:59:55.976Z,18.80
2018-06-30T02:00:56.528Z,18.71
2018-06-30T02:01:57.079Z,18.73
2018-06-30T02:02:57.631Z,18.63
2018-06-30T02:03:58.176Z,18.59
2018-06-30T02:04:58.727Z,18.55
2018-06-30T02:05:59.275Z,18.41
2018-06-30T02:06:59.830Z,18.53
2018-06-30T02:08:00.380Z,18.56
2018-06-30T02:09:00.927Z,18.56
2018-06-30T02:10:01.482Z,18.84
2018-06-30T02:11:02.032Z,18.83
2018-06-30T02:12:02.588Z,18.60
2018-06-30T02:13:03.137Z,18.45
2018-06-30T02:14:03.691Z,18.38
2018-06-30T02:15:04.242Z,18.40
2018-06-30T02:16:04.793Z,18.30
2018-06-30T02:17:05.342Z,18.30
2018-06-30T02:18:05.895Z,18.25
2018-06-30T02:19:06.439Z,18.12
2018-06-30T02:20:06.997Z,18.10
2018-06-30T02:21:07.546Z,18.12
2018-06-30T02:22:08.102Z,18.18
2018-06-30T02:23:08.648Z,18.12
2018-06-30T02:24:09.200Z,18.10
2018-06-30T02:25:09.772Z,17.98
2018-06-30T02:26:10.301Z,18.05
2018-06-30T02:27:10.849Z,17.98
2018-06-30T02:28:11.393Z,17.97
2018-06-30T02:29:11.947Z,17.97
2018-06-30T02:30:12.514Z,17.86
2018-06-30T02:31:13.058Z,17.79
2018-06-30T02:32:13.612Z,17.77
2018-06-30T02:33:14.157Z,17.56
2018-06-30T02:34:14.708Z,17.59
2018-06-30T02:35:15.257Z,17.60
2018-06-30T02:36:15.809Z,17.46
2018-06-30T02:37:16.356Z,17.46
2018-06-30T02:38:16.929Z,17.63
2018-06-30T02:39:17.464Z,17.51
2018-06-30T02:40:18.009Z,17.46
2018-06-30T02:41:18.563Z,17.48
2018-06-30T02:42:19.114Z,17.46
2018-06-30T02:43:19.666Z,17.37
2018-06-30T02:44:20.217Z,17.29
2018-06-30T02:45:20.768Z,17.14
2018-06-30T02:46:21.320Z,17.15
2018-06-30T02:47:21.874Z,17.31
2018-06-30T02:48:22.423Z,17.21
2018-06-30T02:49:22.977Z,17.19
2018-06-30T02:50:23.527Z,17.24
2018-06-30T02:51:24.077Z,17.23
2018-06-30T02:52:24.629Z,17.44
2018-06-30T02:53:25.178Z,17.42
2018-06-30T02:54:25.732Z,17.48
2018-06-30T02:55:26.286Z,17.41
2018-06-30T02:56:26.837Z,17.52
2018-06-30T02:57:27.387Z,17.41
2018-06-30T02:58:27.933Z,17.48
2018-06-30T02:59:28.491Z,17.33
2018-06-30T03:00:29.039Z,17.48
2018-06-30T03:01:29.581Z,17.39
2018-06-30T03:02:30.129Z,17.45
2018-06-30T03:03:30.682Z,17.39
2018-06-30T03:04:31.228Z,17.33
2018-06-30T03:05:31.779Z,17.33
2018-06-30T03:06:32.332Z,17.41
2018-06-30T03:07:32.884Z,17.37
2018-06-30T03:08:33.435Z,17.34
2018-06-30T03:09:33.978Z,17.31
2018-06-30T03:10:34.541Z,17.29
2018-06-30T03:11:35.091Z,17.18
2018-06-30T03:12:35.641Z,17.15
2018-06-30T03:13:36.191Z,17.12
2018-06-30T03:14:36.749Z,17.09
2018-06-30T03:15:37.300Z,17.12
2018-06-30T03:16:37.854Z,17.11
2018-06-30T03:17:38.406Z,17.06
2018-06-30T03:18:38.957Z,17.12
2018-06-30T03:19:39.510Z,17.14
2018-06-30T03:20:40.067Z,17.08
2018-06-30T03:21:40.617Z,17.06
2018-06-30T03:22:41.169Z,17.01
2018-06-30T03:23:41.720Z,17.08
2018-06-30T03:24:42.272Z,17.09
2018-06-30T03:25:42.827Z,17.04
2018-06-30T03:26:43.384Z,17.08
2018-06-30T03:27:43.944Z,17.01
2018-06-30T03:28:44.493Z,17.04
2018-06-30T03:29:45.046Z,16.98
2018-06-30T03:30:45.601Z,17.04
2018-06-30T03:31:46.243Z,17.04
2018-06-30T03:32:46.713Z,17.04
2018-06-30T03:33:47.263Z,16.86
2018-06-30T03:34:47.807Z,16.94
2018-06-30T03:35:48.363Z,16.89
2018-06-30T03:36:48.915Z,16.86
2018-06-30T03:37:49.468Z,16.78
2018-06-30T03:38:50.021Z,16.73
2018-06-30T03:39:50.580Z,16.76
2018-06-30T03:40:51.136Z,16.71
2018-06-30T03:41:51.688Z,16.68
2018-06-30T03:42:52.240Z,16.71
2018-06-30T03:43:52.798Z,16.61
2018-06-30T03:44:53.345Z,16.63
2018-06-30T03:45:53.902Z,16.61
2018-06-30T03:46:54.458Z,16.61
2018-06-30T03:47:55.014Z,16.60
2018-06-30T03:48:55.570Z,16.69
2018-06-30T03:49:56.128Z,16.73
2018-06-30T03:50:56.680Z,16.76
2018-06-30T03:51:57.230Z,16.87
2018-06-30T03:52:57.781Z,16.79
2018-06-30T03:53:58.339Z,16.78
2018-06-30T03:54:58.899Z,16.81
2018-06-30T03:55:59.455Z,16.90
2018-06-30T03:57:00.013Z,16.86
2018-06-30T03:58:00.567Z,16.81
2018-06-30T03:59:01.124Z,16.93
2018-06-30T04:00:01.675Z,16.90
2018-06-30T04:01:02.223Z,16.90
2018-06-30T04:02:02.782Z,16.91
2018-06-30T04:03:03.333Z,16.91
2018-06-30T04:04:03.885Z,16.97
2018-06-30T04:05:04.439Z,17.00
2018-06-30T04:06:04.999Z,17.00
2018-06-30T04:07:05.547Z,16.87
2018-06-30T04:08:06.104Z,16.87
2018-06-30T04:09:06.660Z,17.04
2018-06-30T04:10:07.211Z,17.01
2018-06-30T04:11:07.769Z,17.00
2018-06-30T04:12:08.322Z,17.08
2018-06-30T04:13:08.878Z,17.09
2018-06-30T04:14:09.435Z,17.05
2018-06-30T04:15:09.988Z,17.16
2018-06-30T04:16:10.540Z,17.21
2018-06-30T04:17:11.095Z,17.31
2018-06-30T04:18:11.667Z,17.26
2018-06-30T04:19:12.205Z,17.29
2018-06-30T04:20:12.760Z,17.34
2018-06-30T04:21:13.313Z,17.42
2018-06-30T04:22:13.874Z,17.42
2018-06-30T04:23:14.424Z,17.36
2018-06-30T04:24:14.981Z,17.39
2018-06-30T04:25:15.539Z,17.48
2018-06-30T04:26:16.097Z,17.45
2018-06-30T04:27:16.658Z,17.55
2018-06-30T04:28:17.218Z,17.54
2018-06-30T04:29:17.774Z,17.56
2018-06-30T04:30:18.326Z,17.52
2018-06-30T04:31:18.883Z,17.55
2018-06-30T04:32:19.438Z,17.71
2018-06-30T04:33:19.995Z,17.72
2018-06-30T04:34:20.548Z,17.77
2018-06-30T04:35:21.103Z,17.85
2018-06-30T04:36:21.661Z,17.87
2018-06-30T04:37:22.221Z,18.00
2018-06-30T04:38:22.774Z,18.08
2018-06-30T04:39:23.330Z,18.08
2018-06-30T04:40:23.894Z,18.19
2018-06-30T04:41:24.450Z,18.18
2018-06-30T04:42:25.005Z,18.19
2018-06-30T04:43:25.563Z,18.37
2018-06-30T04:44:26.116Z,18.34
2018-06-30T04:45:26.673Z,18.26
2018-06-30T04:46:27.232Z,18.29
2018-06-30T04:47:27.790Z,18.40
2018-06-30T04:48:28.348Z,18.41
2018-06-30T04:49:28.906Z,18.51
2018-06-30T04:50:29.464Z,18.55
2018-06-30T04:51:30.019Z,18.53
2018-06-30T04:52:30.575Z,18.65
2018-06-30T04:53:31.134Z,18.69
2018-06-30T04:54:31.691Z,18.74
2018-06-30T04:55:32.249Z,18.73
2018-06-30T04:56:32.802Z,18.73
2018-06-30T04:57:33.405Z,18.81
2018-06-30T04:58:33.920Z,19.12
2018-06-30T04:59:34.475Z,19.51
2018-06-30T05:00:35.027Z,20.04
2018-06-30T05:01:35.592Z,20.48
2018-06-30T05:02:36.152Z,20.99
2018-06-30T05:03:36.712Z,21.39
2018-06-30T05:04:37.279Z,21.60
2018-06-30T05:05:37.831Z,21.72
2018-06-30T05:06:38.392Z,21.72
2018-06-30T05:07:38.950Z,21.89
2018-06-30T05:08:39.511Z,22.21
2018-06-30T05:09:40.081Z,22.47
2018-06-30T05:10:40.642Z,22.75
2018-06-30T05:11:41.203Z,23.23
2018-06-30T05:12:41.769Z,23.46
2018-06-30T05:13:42.333Z,23.64
2018-06-30T05:14:42.895Z,23.76
2018-06-30T05:15:43.468Z,24.05
2018-06-30T05:16:44.027Z,24.32
2018-06-30T05:17:44.592Z,24.43
2018-06-30T05:18:45.157Z,24.66
2018-06-30T05:19:45.722Z,24.58
2018-06-30T05:20:46.287Z,24.31
2018-06-30T05:21:46.849Z,23.90
2018-06-30T05:22:47.414Z,23.77
2018-06-30T05:23:47.980Z,23.86
2018-06-30T05:24:48.549Z,23.94
2018-06-30T05:25:49.142Z,24.13
2018-06-30T05:26:49.688Z,24.32
2018-06-30T05:27:50.265Z,24.79
2018-06-30T05:28:50.826Z,25.06
2018-06-30T05:29:51.397Z,25.24
2018-06-30T05:30:51.968Z,25.46
2018-06-30T05:31:52.535Z,25.41
2018-06-30T05:32:53.095Z,25.20
2018-06-30T05:33:53.661Z,25.09
2018-06-30T05:34:54.232Z,24.99
2018-06-30T05:35:54.795Z,24.86
2018-06-30T05:36:55.358Z,24.54
2018-06-30T05:37:55.926Z,24.89
2018-06-30T05:38:56.500Z,25.24
2018-06-30T05:39:57.066Z,25.58
2018-06-30T05:40:57.638Z,25.75
2018-06-30T05:41:58.210Z,25.62
2018-06-30T05:42:58.772Z,25.75
2018-06-30T05:43:59.345Z,25.87
2018-06-30T05:44:59.937Z,26.12
2018-06-30T05:46:00.485Z,26.36
2018-06-30T05:47:01.050Z,26.50
2018-06-30T05:48:01.616Z,26.50
2018-06-30T05:49:02.191Z,26.51
2018-06-30T05:50:02.760Z,26.84
2018-06-30T05:51:03.332Z,26.96
2018-06-30T05:52:03.899Z,27.06
2018-06-30T05:53:04.463Z,27.17
2018-06-30T05:54:05.030Z,27.47
2018-06-30T05:55:05.605Z,27.24
2018-06-30T05:56:06.171Z,27.13
2018-06-30T05:57:06.743Z,27.11
2018-06-30T05:58:07.319Z,27.20
2018-06-30T05:59:07.891Z,27.02
2018-06-30T06:00:08.462Z,27.13
2018-06-30T06:01:09.033Z,27.30
2018-06-30T06:02:09.605Z,27.74
2018-06-30T06:03:10.179Z,27.98
2018-06-30T06:04:10.749Z,28.07
2018-06-30T06:05:11.364Z,28.07
2018-06-30T06:06:11.893Z,28.30
2018-06-30T06:07:12.459Z,28.54
2018-06-30T06:08:13.035Z,28.92
2018-06-30T06:09:13.604Z,29.07
2018-06-30T06:10:14.182Z,29.23
2018-06-30T06:11:14.761Z,29.23
2018-06-30T06:12:15.331Z,29.37
2018-06-30T06:13:15.909Z,29.27
2018-06-30T06:14:16.477Z,29.38
2018-06-30T06:15:17.059Z,29.26
2018-06-30T06:16:17.625Z,29.39
2018-06-30T06:17:18.205Z,29.41
2018-06-30T06:18:18.776Z,29.53
2018-06-30T06:19:19.353Z,29.53
2018-06-30T06:20:19.917Z,29.53
2018-06-30T06:21:20.490Z,29.53
2018-06-30T06:22:21.065Z,29.71
2018-06-30T06:23:21.640Z,29.64
2018-06-30T06:24:22.213Z,29.41
2018-06-30T06:25:22.785Z,29.30
2018-06-30T06:26:23.355Z,29.37
2018-06-30T06:27:23.985Z,29.63
2018-06-30T06:28:24.504Z,29.54
2018-06-30T06:29:25.071Z,29.59
2018-06-30T06:30:25.650Z,29.81
2018-06-30T06:31:26.222Z,29.96
2018-06-30T06:32:26.802Z,30.03
2018-06-30T06:33:27.369Z,30.01
2018-06-30T06:34:27.946Z,30.01
2018-06-30T06:35:28.522Z,29.89
2018-06-30T06:36:29.097Z,29.78
2018-06-30T06:37:29.675Z,29.69
2018-06-30T06:38:30.252Z,29.99
2018-06-30T06:39:30.826Z,30.05
2018-06-30T06:40:31.395Z,30.27
2018-06-30T06:41:31.974Z,30.50
2018-06-30T06:42:32.536Z,30.60
2018-06-30T06:43:33.112Z,30.51
2018-06-30T06:44:33.694Z,30.37
2018-06-30T06:45:34.261Z,30.56
2018-06-30T06:46:34.840Z,30.64
2018-06-30T06:47:35.422Z,30.71
2018-06-30T06:48:35.997Z,30.68
2018-06-30T06:49:36.581Z,30.54
2018-06-30T06:50:37.159Z,30.51
2018-06-30T06:51:37.737Z,30.37
2018-06-30T06:52:38.314Z,30.66
2018-06-30T06:53:38.883Z,30.83
2018-06-30T06:54:39.460Z,31.08
2018-06-30T06:55:40.043Z,31.23
2018-06-30T06:56:40.612Z,30.68
2018-06-30T06:57:41.184Z,30.40
2018-06-30T06:58:41.760Z,30.44
2018-06-30T06:59:42.335Z,30.83
2018-06-30T07:00:42.945Z,30.86
2018-06-30T07:01:43.482Z,30.56
2018-06-30T07:02:44.063Z,30.62
2018-06-30T07:03:44.630Z,30.54
2018-06-30T07:04:45.209Z,30.62
2018-06-30T07:05:45.774Z,30.75
2018-06-30T07:06:46.348Z,30.72
2018-06-30T07:07:46.930Z,30.78
2018-06-30T07:08:47.500Z,30.88
2018-06-30T07:09:48.079Z,30.99
2018-06-30T07:10:48.651Z,31.32
2018-06-30T07:11:49.219Z,31.34
2018-06-30T07:12:49.794Z,31.47
2018-06-30T07:13:50.364Z,31.27
2018-06-30T07:14:50.942Z,30.87
2018-06-30T07:15:51.516Z,30.88
2018-06-30T07:16:52.094Z,30.83
2018-06-30T07:17:52.667Z,30.94
2018-06-30T07:18:53.240Z,31.05
2018-06-30T07:19:53.816Z,31.23
2018-06-30T07:20:54.389Z,30.91
2018-06-30T07:21:54.960Z,30.97
2018-06-30T07:22:55.535Z,31.37
2018-06-30T07:23:56.120Z,31.52
2018-06-30T07:24:56.690Z,31.61
2018-06-30T07:25:57.270Z,31.85
2018-06-30T07:26:57.844Z,31.76
2018-06-30T07:27:58.421Z,31.80
2018-06-30T07:28:58.995Z,31.92
2018-06-30T07:29:59.573Z,31.68
2018-06-30T07:31:00.145Z,31.23
2018-06-30T07:32:00.719Z,31.05
2018-06-30T07:33:01.293Z,31.12
2018-06-30T07:34:02.056Z,31.40
2018-06-30T07:35:02.434Z,31.34
2018-06-30T07:36:03.005Z,31.43
2018-06-30T07:37:03.574Z,31.43
2018-06-30T07:38:04.149Z,31.40
2018-06-30T07:39:04.725Z,31.61
2018-06-30T07:40:05.301Z,31.77
2018-06-30T07:41:05.875Z,31.95
2018-06-30T07:42:06.450Z,31.77
2018-06-30T07:43:07.056Z,31.45
2018-06-30T07:44:07.603Z,31.52
2018-06-30T07:45:08.176Z,31.57
2018-06-30T07:46:08.752Z,31.85
2018-06-30T07:47:09.329Z,31.62
2018-06-30T07:48:09.897Z,31.50
2018-06-30T07:49:10.474Z,31.34
2018-06-30T07:50:11.246Z,31.57
2018-06-30T07:51:11.623Z,31.74
2018-06-30T07:52:12.197Z,31.87
2018-06-30T07:53:12.767Z,31.71
2018-06-30T07:54:13.341Z,31.55
2018-06-30T07:55:13.920Z,31.69
2018-06-30T07:56:14.564Z,31.54
2018-06-30T07:57:15.062Z,31.73
2018-06-30T07:58:15.635Z,32.05
2018-06-30T07:59:16.212Z,31.87
2018-06-30T08:00:16.785Z,31.85
2018-06-30T08:01:17.355Z,32.17
2018-06-30T08:02:17.932Z,32.62
2018-06-30T08:03:18.506Z,32.56
2018-06-30T08:04:19.078Z,32.10
2018-06-30T08:05:19.651Z,31.76
2018-06-30T08:06:20.221Z,31.77
2018-06-30T08:07:20.808Z,31.96
2018-06-30T08:08:21.374Z,32.11
2018-06-30T08:09:21.943Z,31.82
2018-06-30T08:10:22.515Z,31.85
2018-06-30T08:11:23.095Z,31.69
2018-06-30T08:12:23.696Z,32.03
2018-06-30T08:13:24.269Z,32.11
2018-06-30T08:14:24.839Z,32.10
2018-06-30T08:15:25.413Z,32.39
2018-06-30T08:16:25.983Z,32.54
2018-06-30T08:17:26.552Z,32.63
2018-06-30T08:18:27.150Z,32.52
2018-06-30T08:19:27.718Z,32.74
2018-06-30T08:20:28.291Z,33.11
2018-06-30T08:21:28.866Z,33.28
2018-06-30T08:22:29.437Z,33.08
2018-06-30T08:23:30.010Z,32.73
2018-06-30T08:24:30.581Z,32.76
2018-06-30T08:25:31.156Z,32.98
2018-06-30T08:26:31.732Z,32.76
2018-06-30T08:27:32.305Z,32.67
2018-06-30T08:28:32.879Z,32.86
2018-06-30T08:29:33.466Z,33.00
2018-06-30T08:30:34.029Z,32.96
2018-06-30T08:31:34.605Z,33.22
2018-06-30T08:32:35.178Z,33.38
2018-06-30T08:33:35.762Z,33.26
2018-06-30T08:34:36.334Z,33.41
2018-06-30T08:35:36.908Z,33.52
2018-06-30T08:36:37.478Z,33.79
2018-06-30T08:37:38.055Z,33.92
2018-06-30T08:38:38.631Z,33.87
2018-06-30T08:39:39.207Z,33.99
2018-06-30T08:40:39.779Z,33.53
2018-06-30T08:41:40.355Z,32.93
2018-06-30T08:42:40.929Z,32.48
2018-06-30T08:43:41.498Z,32.22
2018-06-30T08:44:42.142Z,32.51
2018-06-30T08:45:42.645Z,32.98
2018-06-30T08:46:43.220Z,33.17
2018-06-30T08:47:43.793Z,33.08
2018-06-30T08:48:44.364Z,33.18
2018-06-30T08:49:44.941Z,33.07
2018-06-30T08:50:45.515Z,33.04
2018-06-30T08:51:46.092Z,33.14
2018-06-30T08:52:46.662Z,32.85
2018-06-30T08:53:47.230Z,33.00
2018-06-30T08:54:47.806Z,33.26
2018-06-30T08:55:48.382Z,33.22
2018-06-30T08:56:48.955Z,33.31
2018-06-30T08:57:49.528Z,33.42
2018-06-30T08:58:50.103Z,33.60
2018-06-30T08:59:50.675Z,33.99
2018-06-30T09:00:51.247Z,33.93
2018-06-30T09:01:51.817Z,33.98
2018-06-30T09:02:52.384Z,34.01
2018-06-30T09:03:52.952Z,33.92
2018-06-30T09:04:53.535Z,34.11
2018-06-30T09:05:54.103Z,34.35
2018-06-30T09:06:54.670Z,34.65
2018-06-30T09:07:55.247Z,34.71
2018-06-30T09:08:55.821Z,34.41
2018-06-30T09:09:56.391Z,34.43
2018-06-30T09:10:56.964Z,34.26
2018-06-30T09:11:57.588Z,33.93
2018-06-30T09:12:58.113Z,34.13
2018-06-30T09:13:58.685Z,33.70
2018-06-30T09:14:59.254Z,33.55
2018-06-30T09:15:59.830Z,33.68
2018-06-30T09:17:00.411Z,33.48
2018-06-30T09:18:00.988Z,33.43
2018-06-30T09:19:01.561Z,33.72
2018-06-30T09:20:02.133Z,33.89
2018-06-30T09:21:02.706Z,33.83
2018-06-30T09:22:03.278Z,34.09
2018-06-30T09:23:03.850Z,34.08
2018-06-30T09:24:04.475Z,34.19
2018-06-30T09:25:04.992Z,34.41
2018-06-30T09:26:05.619Z,34.23
2018-06-30T09:27:06.142Z,34.17
2018-06-30T09:28:06.721Z,34.02
2018-06-30T09:29:07.292Z,34.13
2018-06-30T09:30:07.860Z,34.14
2018-06-30T09:31:08.438Z,34.20
2018-06-30T09:32:09.007Z,34.20
2018-06-30T09:33:09.583Z,34.39
2018-06-30T09:34:10.153Z,34.34
2018-06-30T09:35:10.732Z,34.16
2018-06-30T09:36:11.305Z,34.30
2018-06-30T09:37:11.873Z,34.21
2018-06-30T09:38:12.450Z,33.98
2018-06-30T09:39:13.027Z,34.41
2018-06-30T09:40:13.604Z,34.24
2018-06-30T09:41:14.174Z,34.50
2018-06-30T09:42:14.744Z,34.73
2018-06-30T09:43:15.319Z,34.56
2018-06-30T09:44:15.929Z,34.20
2018-06-30T09:45:16.460Z,34.20
2018-06-30T09:46:17.028Z,34.09
2018-06-30T09:47:17.603Z,34.04
2018-06-30T09:48:18.177Z,33.80
2018-06-30T09:49:18.748Z,33.97
2018-06-30T09:50:19.318Z,34.39
2018-06-30T09:51:19.901Z,34.56
2018-06-30T09:52:20.462Z,34.48
2018-06-30T09:53:21.032Z,34.29
2018-06-30T09:54:21.601Z,34.30
2018-06-30T09:55:22.178Z,33.98
2018-06-30T09:56:22.749Z,33.86
2018-06-30T09:57:23.328Z,33.92
2018-06-30T09:58:23.902Z,33.80
2018-06-30T09:59:24.477Z,33.87
2018-06-30T10:00:25.094Z,33.99
2018-06-30T10:01:25.633Z,33.93
2018-06-30T10:02:26.200Z,33.70
2018-06-30T10:03:26.772Z,33.70
2018-06-30T10:04:27.344Z,33.89
2018-06-30T10:05:27.915Z,33.85
2018-06-30T10:06:28.485Z,33.98
2018-06-30T10:07:29.058Z,33.87
2018-06-30T10:08:29.632Z,33.79
2018-06-30T10:09:30.206Z,33.98
2018-06-30T10:10:30.778Z,33.90
2018-06-30T10:11:31.364Z,34.04
2018-06-30T10:12:31.967Z,34.16
2018-06-30T10:13:32.498Z,34.14
2018-06-30T10:14:33.073Z,33.97
2018-06-30T10:15:33.651Z,33.92
2018-06-30T10:16:34.219Z,33.67
2018-06-30T10:17:34.821Z,33.30
2018-06-30T10:18:35.357Z,33.31
2018-06-30T10:19:36.007Z,33.31
2018-06-30T10:20:36.497Z,33.36
2018-06-30T10:21:37.068Z,33.10
2018-06-30T10:22:37.640Z,32.81
2018-06-30T10:23:38.209Z,32.86
2018-06-30T10:24:38.781Z,32.76
2018-06-30T10:25:39.356Z,33.00
2018-06-30T10:26:39.925Z,32.86
2018-06-30T10:27:40.493Z,32.88
2018-06-30T10:28:41.061Z,33.30
2018-06-30T10:29:41.632Z,33.63
2018-06-30T10:30:42.206Z,33.76
2018-06-30T10:31:42.782Z,33.64
2018-06-30T10:32:43.358Z,33.37
2018-06-30T10:33:43.930Z,33.28
2018-06-30T10:34:44.505Z,33.31
2018-06-30T10:35:45.079Z,33.30
2018-06-30T10:36:45.645Z,33.28
2018-06-30T10:37:46.221Z,32.78
2018-06-30T10:38:46.797Z,33.07
2018-06-30T10:39:47.366Z,33.42
2018-06-30T10:40:47.938Z,33.36
2018-06-30T10:41:48.508Z,33.50
2018-06-30T10:42:49.081Z,33.48
2018-06-30T10:43:49.653Z,33.37
2018-06-30T10:44:50.226Z,33.28
2018-06-30T10:45:50.792Z,33.31
2018-06-30T10:46:51.367Z,33.58
2018-06-30T10:47:51.937Z,33.80
2018-06-30T10:48:52.505Z,33.90
2018-06-30T10:49:53.079Z,34.14
2018-06-30T10:50:53.649Z,34.19
2018-06-30T10:51:54.220Z,34.20
2018-06-30T10:52:54.787Z,34.42
2018-06-30T10:53:55.356Z,34.26
2018-06-30T10:54:55.931Z,34.26
2018-06-30T10:55:56.504Z,34.45
2018-06-30T10:56:57.082Z,34.80
2018-06-30T10:57:57.657Z,34.60
2018-06-30T10:58:58.232Z,34.29
2018-06-30T10:59:58.807Z,34.27
2018-06-30T11:00:59.382Z,34.45
2018-06-30T11:01:59.956Z,34.80
2018-06-30T11:03:00.531Z,35.13
2018-06-30T11:04:01.116Z,35.37
2018-06-30T11:05:01.678Z,35.39
2018-06-30T11:06:02.248Z,35.52
2018-06-30T11:07:02.811Z,35.81
2018-06-30T11:08:03.383Z,36.00
2018-06-30T11:09:03.957Z,35.96
2018-06-30T11:10:04.544Z,35.63
2018-06-30T11:11:05.196Z,35.07
2018-06-30T11:12:05.740Z,34.77
2018-06-30T11:13:06.350Z,34.60
2018-06-30T11:14:06.911Z,34.51
2018-06-30T11:15:07.493Z,34.46
2018-06-30T11:16:08.066Z,34.60
2018-06-30T11:17:08.653Z,34.67
2018-06-30T11:18:09.226Z,34.70
2018-06-30T11:19:09.803Z,34.81
2018-06-30T11:20:10.436Z,34.98
2018-06-30T11:21:10.962Z,35.14
2018-06-30T11:22:11.536Z,35.45
2018-06-30T11:23:12.109Z,35.37
2018-06-30T11:24:12.682Z,35.15
2018-06-30T11:25:13.252Z,34.93
2018-06-30T11:26:13.825Z,34.93
2018-06-30T11:27:14.396Z,34.61
2018-06-30T11:28:14.973Z,34.77
2018-06-30T11:29:15.545Z,34.50
2018-06-30T11:30:16.122Z,34.76
2018-06-30T11:31:16.699Z,34.64
2018-06-30T11:32:17.274Z,34.39
2018-06-30T11:33:17.849Z,34.13
2018-06-30T11:34:18.421Z,34.14
2018-06-30T11:35:19.006Z,34.26
2018-06-30T11:36:19.572Z,34.64
2018-06-30T11:37:20.145Z,35.02
2018-06-30T11:38:20.720Z,35.21
2018-06-30T11:39:21.291Z,35.63
2018-06-30T11:40:21.860Z,35.91
2018-06-30T11:41:22.435Z,35.92
2018-06-30T11:42:23.007Z,35.39
2018-06-30T11:43:23.577Z,35.47
2018-06-30T11:44:24.152Z,35.17
2018-06-30T11:45:24.725Z,35.21
2018-06-30T11:46:25.300Z,35.18
2018-06-30T11:47:25.874Z,35.07
2018-06-30T11:48:26.456Z,34.71
2018-06-30T11:49:27.027Z,34.88
2018-06-30T11:50:27.642Z,34.73
2018-06-30T11:51:28.167Z,34.38
2018-06-30T11:52:28.736Z,34.41
2018-06-30T11:53:29.300Z,34.46
2018-06-30T11:54:29.873Z,34.54
2018-06-30T11:55:30.440Z,34.73
2018-06-30T11:56:31.013Z,35.25
2018-06-30T11:57:31.585Z,35.45
2018-06-30T11:58:32.170Z,35.69
2018-06-30T11:59:32.745Z,35.92
2018-06-30T12:00:33.342Z,35.71
2018-06-30T12:01:33.917Z,35.89
2018-06-30T12:02:34.491Z,35.93
2018-06-30T12:03:35.157Z,35.77
2018-06-30T12:04:35.644Z,35.28
2018-06-30T12:05:36.216Z,34.99
2018-06-30T12:06:36.788Z,35.29
2018-06-30T12:07:37.369Z,35.73
2018-06-30T12:08:37.950Z,36.19
2018-06-30T12:09:38.515Z,36.08
2018-06-30T12:10:39.091Z,35.73
2018-06-30T12:11:39.665Z,35.51
2018-06-30T12:12:40.238Z,35.70
2018-06-30T12:13:40.817Z,35.52
2018-06-30T12:14:41.386Z,35.81
2018-06-30T12:15:41.974Z,35.91
2018-06-30T12:16:42.533Z,36.14
2018-06-30T12:17:43.114Z,36.39
2018-06-30T12:18:43.681Z,36.21
2018-06-30T12:19:44.257Z,35.64
2018-06-30T12:20:44.831Z,35.45
2018-06-30T12:21:45.403Z,35.14
2018-06-30T12:22:46.026Z,34.53
2018-06-30T12:23:46.542Z,34.26
2018-06-30T12:24:47.112Z,34.29
2018-06-30T12:25:47.682Z,34.70
2018-06-30T12:26:48.258Z,35.02
2018-06-30T12:27:48.838Z,35.26
2018-06-30T12:28:49.396Z,35.57
2018-06-30T12:29:49.964Z,35.30
2018-06-30T12:30:50.541Z,35.05
2018-06-30T12:31:51.110Z,34.35
2018-06-30T12:32:51.682Z,34.43
2018-06-30T12:33:52.251Z,34.71
2018-06-30T12:34:52.821Z,34.74
2018-06-30T12:35:53.390Z,34.76
2018-06-30T12:36:53.963Z,34.89
2018-06-30T12:37:54.536Z,35.21
2018-06-30T12:38:55.115Z,35.28
2018-06-30T12:39:55.683Z,35.25
2018-06-30T12:40:56.260Z,35.15
2018-06-30T12:41:56.830Z,35.29
2018-06-30T12:42:57.401Z,35.50
2018-06-30T12:43:57.970Z,35.57
2018-06-30T12:44:58.588Z,35.70
2018-06-30T12:45:59.115Z,35.52
2018-06-30T12:46:59.685Z,34.96
2018-06-30T12:48:00.259Z,34.89
2018-06-30T12:49:00.834Z,35.18
2018-06-30T12:50:01.409Z,35.77
2018-06-30T12:51:01.982Z,36.17
2018-06-30T12:52:02.554Z,36.52
2018-06-30T12:53:03.125Z,36.50
2018-06-30T12:54:03.703Z,36.31
2018-06-30T12:55:04.276Z,36.30
2018-06-30T12:56:04.855Z,35.95
2018-06-30T12:57:05.428Z,35.74
2018-06-30T12:58:05.996Z,35.35
2018-06-30T12:59:06.569Z,34.76
2018-06-30T13:00:07.140Z,34.29